createdAt,value
2023-01-07T00:00:03.035Z,38.83
2023-01-07T00:05:14.689Z,32.25
2023-01-07T00:10:17.649Z,34.65
2023-01-07T00:15:22.953Z,34.95
2023-01-07T00:20:25.882Z,29.50
2023-01-07T00:25:29.087Z,33.80
2023-01-07T00:30:31.697Z,31.05
2023-01-07T00:35:36.936Z,32.60
2023-01-07T00:40:39.675Z,35.88
2023-01-07T00:45:42.236Z,31.05
2023-01-07T00:50:45.851Z,36.13
2023-01-07T00:55:49.499Z,28.80
2023-01-07T01:01:01.359Z,43.08
2023-01-07T01:06:14.479Z,23.25
2023-01-07T01:11:17.790Z,32.97
2023-01-07T01:16:20.563Z,29.30
2023-01-07T01:21:24.197Z,27.55
2023-01-07T01:26:29.534Z,33.83
2023-01-07T01:31:32.402Z,34.25
2023-01-07T01:36:35.316Z,31.67
2023-01-07T01:41:38.505Z,35.97
2023-01-07T01:46:43.876Z,33.75
2023-01-07T01:51:54.393Z,39.08
2023-01-07T01:57:02.022Z,28.13
2023-01-07T02:02:06.696Z,32.85
2023-01-07T02:07:17.455Z,32.85
2023-01-07T02:12:47.836Z,29.98
2023-01-07T02:18:23.088Z,25.00
2023-01-07T02:23:52.950Z,26.38
2023-01-07T02:29:20.608Z,29.67
2023-01-07T02:34:57.597Z,29.40
2023-01-07T02:40:22.426Z,26.27
2023-01-07T02:45:31.485Z,28.60
2023-01-07T02:50:35.442Z,20.73
2023-01-07T02:56:05.509Z,28.00
2023-01-07T03:01:31.021Z,28.02
2023-01-07T03:07:04.550Z,26.05
2023-01-07T03:12:22.855Z,18.13
2023-01-07T03:17:34.815Z,26.42
2023-01-07T03:22:39.114Z,24.73
2023-01-07T03:27:43.482Z,22.13
2023-01-07T03:32:55.210Z,22.65
2023-01-07T03:38:02.212Z,25.67
2023-01-07T03:43:11.452Z,23.42
2023-01-07T03:48:14.400Z,18.25
2023-01-07T03:53:17.770Z,21.55
2023-01-07T03:58:24.326Z,21.45
2023-01-07T04:03:27.277Z,20.33
2023-01-07T04:08:30.990Z,26.33
2023-01-07T04:13:33.845Z,21.48
2023-01-07T04:18:36.562Z,15.27
2023-01-07T04:23:40.117Z,16.30
2023-01-07T04:28:44.465Z,22.70
2023-01-07T04:33:47.955Z,21.02
2023-01-07T04:38:51.856Z,21.10
2023-01-07T04:43:57.744Z,26.42
2023-01-07T04:49:02.065Z,20.02
2023-01-07T04:54:05.062Z,19.02
2023-01-07T04:59:07.876Z,21.67
2023-01-07T05:04:11.070Z,19.70
2023-01-07T05:09:14.305Z,23.25
2023-01-07T05:14:17.510Z,25.40
2023-01-07T05:19:21.864Z,15.23
2023-01-07T05:24:25.337Z,23.95
2023-01-07T05:29:28.705Z,20.45
2023-01-07T05:34:32.349Z,17.90
2023-01-07T05:39:35.136Z,18.98
2023-01-07T05:44:40.970Z,17.88
2023-01-07T05:49:46.052Z,20.75
2023-01-07T05:54:48.589Z,18.15
2023-01-07T05:59:51.252Z,21.95
2023-01-07T06:04:53.896Z,16.17
2023-01-07T06:09:57.084Z,18.80
2023-01-07T06:15:00.357Z,18.73
2023-01-07T06:20:04.633Z,17.30
2023-01-07T06:25:07.427Z,15.30
2023-01-07T06:30:11.216Z,12.88
2023-01-07T06:35:13.822Z,14.30
2023-01-07T06:40:16.748Z,10.30
2023-01-07T06:45:19.314Z,11.55
2023-01-07T06:50:22.489Z,15.30
2023-01-07T06:55:25.077Z,14.18
2023-01-07T07:00:46.567Z,14.40
2023-01-07T07:06:08.109Z,11.60
2023-01-07T07:11:12.234Z,17.13
2023-01-07T07:16:15.981Z,13.45
2023-01-07T07:21:20.424Z,13.63
2023-01-07T07:26:23.919Z,13.38
2023-01-07T07:31:26.770Z,8.98
2023-01-07T07:36:29.451Z,9.50
2023-01-07T07:41:32.081Z,8.45
2023-01-07T07:46:36.185Z,10.43
2023-01-07T07:51:39.401Z,8.50
2023-01-07T07:56:41.936Z,21.23
2023-01-07T08:01:44.657Z,6.70
2023-01-07T08:06:47.256Z,11.77
2023-01-07T08:11:50.786Z,8.68
2023-01-07T08:16:55.982Z,6.60
2023-01-07T08:21:58.549Z,10.68
2023-01-07T08:27:01.148Z,10.70
2023-01-07T08:32:04.667Z,14.02
2023-01-07T08:37:07.410Z,11.88
2023-01-07T08:42:10.028Z,10.20
2023-01-07T08:47:12.520Z,7.40
2023-01-07T08:52:15.283Z,11.85
2023-01-07T08:57:19.257Z,12.95
2023-01-07T09:02:21.980Z,6.18
2023-01-07T09:07:24.610Z,5.05
2023-01-07T09:12:27.213Z,5.93
2023-01-07T09:17:29.895Z,4.35
2023-01-07T09:22:36.453Z,7.10
2023-01-07T09:27:39.353Z,12.00
2023-01-07T09:32:43.226Z,7.75
2023-01-07T09:37:46.325Z,5.78
2023-01-07T09:43:12.420Z,7.45
2023-01-07T09:48:42.630Z,6.43
2023-01-07T09:53:53.675Z,8.40
2023-01-07T09:58:57.878Z,8.82
2023-01-07T10:04:21.356Z,7.05
2023-01-07T10:09:57.057Z,6.10
2023-01-07T10:15:05.775Z,9.50
2023-01-07T10:20:20.735Z,5.65
2023-01-07T10:25:30.383Z,5.45
2023-01-07T10:30:40.943Z,9.88
2023-01-07T10:35:47.349Z,10.88
2023-01-07T10:40:59.543Z,5.45
2023-01-07T10:46:40.185Z,11.13
2023-01-07T10:51:50.886Z,5.63
2023-01-07T10:57:03.440Z,8.15
2023-01-07T11:02:15.360Z,8.70
2023-01-07T11:07:28.150Z,6.80
2023-01-07T11:12:49.511Z,5.88
2023-01-07T11:18:22.754Z,10.27
2023-01-07T11:23:32.463Z,7.30
2023-01-07T11:28:37.213Z,5.25
2023-01-07T11:34:01.474Z,6.05
2023-01-07T11:39:18.619Z,5.35
2023-01-07T11:44:21.278Z,5.05
2023-01-07T11:49:30.178Z,7.88
2023-01-07T11:54:33.442Z,3.78
2023-01-07T11:59:36.083Z,4.88
2023-01-07T12:04:40.386Z,3.92
2023-01-07T12:09:45.957Z,5.70
2023-01-07T12:14:49.057Z,5.50
2023-01-07T12:20:14.238Z,6.28
2023-01-07T12:25:35.584Z,5.35
2023-01-07T12:31:03.075Z,11.57
2023-01-07T12:36:13.571Z,4.97
2023-01-07T12:41:42.208Z,8.55
2023-01-07T12:47:31.154Z,4.22
2023-01-07T12:52:45.531Z,9.00
2023-01-07T12:58:26.205Z,5.63
2023-01-07T13:03:40.637Z,6.45
2023-01-07T13:09:02.021Z,6.55
2023-01-07T13:14:07.862Z,6.43
2023-01-07T13:19:12.456Z,5.80
2023-01-07T13:24:54.432Z,8.65
2023-01-07T13:30:13.127Z,4.40
2023-01-07T13:35:43.815Z,6.28
2023-01-07T13:41:12.373Z,6.03
2023-01-07T13:46:21.779Z,5.60
2023-01-07T13:51:30.423Z,7.22
2023-01-07T13:56:35.995Z,5.80
2023-01-07T14:02:15.448Z,11.60
2023-01-07T14:07:19.377Z,9.85
2023-01-07T14:12:39.419Z,9.47
2023-01-07T14:18:12.175Z,10.93
2023-01-07T14:23:36.039Z,8.40
2023-01-07T14:29:12.664Z,15.45
2023-01-07T14:34:22.688Z,9.13
2023-01-07T14:39:52.760Z,9.02
2023-01-07T14:44:55.493Z,9.25
2023-01-07T14:50:20.296Z,9.85
2023-01-07T14:55:44.736Z,8.65
2023-01-07T15:01:22.108Z,8.82
2023-01-07T15:06:27.961Z,8.63
2023-01-07T15:11:51.250Z,9.15
2023-01-07T15:16:54.487Z,8.23
2023-01-07T15:27:34.025Z,12.23
2023-01-07T15:32:42.434Z,9.10
2023-01-07T15:37:49.425Z,9.82
2023-01-07T15:42:57.046Z,7.68
2023-01-07T15:48:30.194Z,9.02
2023-01-07T15:53:32.923Z,7.78
2023-01-07T15:58:46.235Z,8.20
2023-01-07T16:03:54.186Z,10.88
2023-01-07T16:09:02.096Z,9.32
2023-01-07T16:14:20.343Z,6.25
2023-01-07T16:19:22.951Z,8.20
2023-01-07T16:24:25.657Z,16.90
2023-01-07T16:29:35.655Z,11.55
2023-01-07T16:34:41.264Z,10.63
2023-01-07T16:39:47.349Z,9.25
2023-01-07T16:44:52.947Z,11.40
2023-01-07T16:50:18.607Z,7.03
2023-01-07T16:55:46.535Z,9.00
2023-01-07T17:00:50.039Z,6.93
2023-01-07T17:06:04.814Z,12.27
2023-01-07T17:11:34.369Z,8.23
2023-01-07T17:16:37.933Z,8.02
2023-01-07T17:21:45.746Z,8.70
2023-01-07T17:26:50.031Z,9.70
2023-01-07T17:31:53.069Z,7.45
2023-01-07T17:36:59.313Z,10.70
2023-01-07T17:42:20.464Z,12.05
2023-01-07T17:47:23.203Z,6.72
2023-01-07T17:52:25.761Z,7.75
2023-01-07T17:57:28.695Z,8.38
2023-01-07T18:02:31.595Z,10.55
2023-01-07T18:07:34.271Z,5.65
2023-01-07T18:12:37.429Z,11.18
2023-01-07T18:17:40.375Z,10.70
2023-01-07T18:22:43.641Z,8.05
2023-01-07T18:27:47.270Z,12.00
2023-01-07T18:32:56.371Z,9.68
2023-01-07T18:37:58.984Z,11.85
2023-01-07T18:43:01.551Z,11.65
2023-01-07T18:48:05.515Z,11.50
2023-01-07T18:53:10.643Z,14.30
2023-01-07T18:58:14.568Z,11.40
2023-01-07T19:03:17.273Z,13.23
2023-01-07T19:08:19.987Z,10.23
2023-01-07T19:13:23.480Z,16.98
2023-01-07T19:18:26.110Z,9.15
2023-01-07T19:23:28.647Z,6.47
2023-01-07T19:28:32.863Z,9.35
2023-01-07T19:33:36.671Z,12.35
2023-01-07T19:38:45.306Z,8.38
2023-01-07T19:43:48.068Z,9.20
2023-01-07T19:48:51.221Z,8.25
2023-01-07T19:54:16.741Z,10.35
2023-01-07T19:59:19.339Z,12.55
2023-01-07T20:04:26.585Z,11.15
2023-01-07T20:09:29.603Z,11.20
2023-01-07T20:14:32.877Z,9.50
2023-01-07T20:19:36.416Z,11.07
2023-01-07T20:24:40.167Z,9.05
2023-01-07T20:29:45.854Z,9.48
2023-01-07T20:34:51.304Z,10.38
2023-01-07T20:39:57.237Z,11.15
2023-01-07T20:45:00.692Z,9.27
2023-01-07T20:50:03.496Z,11.35
2023-01-07T20:55:06.690Z,8.40
2023-01-07T21:05:21.180Z,11.32
2023-01-07T21:10:25.558Z,12.38
2023-01-07T21:15:28.299Z,11.77
2023-01-07T21:20:36.371Z,9.48
2023-01-07T21:25:39.020Z,11.52
2023-01-07T21:30:42.092Z,9.55
2023-01-07T21:35:46.076Z,19.73
2023-01-07T21:40:48.761Z,10.90
2023-01-07T21:45:54.432Z,8.90
2023-01-07T21:51:07.780Z,7.35
2023-01-07T21:56:13.233Z,9.73
2023-01-07T22:01:19.046Z,9.70
2023-01-07T22:11:26.562Z,9.75
2023-01-07T22:16:31.235Z,13.90
2023-01-07T22:26:36.517Z,8.07
2023-01-07T22:31:40.043Z,10.73
2023-01-07T22:36:58.546Z,9.55
2023-01-07T22:42:04.500Z,8.25
2023-01-07T22:47:08.731Z,12.07
2023-01-07T22:52:12.099Z,13.47
2023-01-07T22:57:14.951Z,10.30
2023-01-07T23:02:17.808Z,9.93
2023-01-07T23:07:20.468Z,12.60
2023-01-07T23:12:23.276Z,11.23
2023-01-07T23:17:26.363Z,13.32
2023-01-07T23:22:29.149Z,14.65
2023-01-07T23:27:31.746Z,15.07
2023-01-07T23:32:34.423Z,9.93
2023-01-07T23:37:36.982Z,9.77
2023-01-07T23:42:39.566Z,13.23
2023-01-07T23:47:42.233Z,10.27
2023-01-07T23:52:44.806Z,11.68
2023-01-07T23:57:47.445Z,9.93
